Port Imperial New Jersey — WBR3133 — position and weather

sailwx.info

Track history (hours):
 
Tides and Currents Weather Stations Pressure Air Temp Water Temp Dewpoint Dewpoint Depression Visibility Wind Speed Wind Dir Waves Ship Positions

Port Imperial New Jersey

Owner: PORT IMPERIAL FERRY CORP, WEEHAWKEN, NJ. More information available from US FCC via Universal Licensing System and Coast Guard Vessel Documentation Center.

Last reported at 2015-May-22 13:33 UTC. Time now 2015-May-23 01:10 UTC.
Position N 40°42' W 074°00'.

Length 31 m.

Type: Passenger vessel. MMSI: 366990550.

Date/timePositionNaut miles runAvg speedWind from/ knotsBaromVisibWave heightAir tempDewpointWater temp
2015-May-22 13:33N 40°42' W 074°00'2 1.7
2015-May-22 12:34N 40°44' W 074°01'1 0.6
2015-May-22 11:33N 40°43' W 074°01'1 0.1
2015-May-21 23:33N 40°44' W 074°01'2 2.4
2015-May-21 22:34N 40°42' W 074°01'2 2.1
2015-May-21 21:33N 40°44' W 074°02'2 2.2
2015-May-21 20:33N 40°42' W 074°01'1 0.9
2015-May-21 19:33N 40°43' W 074°01'4 3.8
2015-May-21 18:33N 40°47' W 074°01'0 0.0
2015-May-21 17:33N 40°47' W 074°01'0 0.0
2015-May-21 16:34N 40°47' W 074°01'0 0.0
2015-May-21 15:33N 40°47' W 074°01'0 0.0
2015-May-21 14:33N 40°47' W 074°01'0 0.0
2015-May-21 13:33N 40°47' W 074°01'0 0.0
2015-May-21 12:33N 40°47' W 074°01'0 0.0
2015-May-21 11:33N 40°47' W 074°01'0 0.0
2015-May-21 10:33N 40°47' W 074°01'0 0.0
2015-May-21 09:33N 40°47' W 074°01'0 0.0
2015-May-21 08:33N 40°47' W 074°01'0 0.0
2015-May-20 15:10N 40°47' W 074°01'0 0.0
2015-May-20 14:34N 40°47' W 074°01'0 0.0
2015-May-20 01:32N 40°47' W 074°01'0 0.0
2015-May-20 00:33N 40°47' W 074°01'0 0.0
2015-May-19 23:34N 40°47' W 074°01'0 0.0
2015-May-19 22:33N 40°47' W 074°01'0 0.0
2015-May-19 21:34N 40°47' W 074°01'0 0.0
2015-May-19 20:33N 40°47' W 074°01'0 0.0
2015-May-19 19:34N 40°47' W 074°01'0 0.0
2015-May-19 18:34N 40°47' W 074°01'0 0.0
2015-May-19 17:33N 40°47' W 074°01'0 0.0
2015-May-19 16:34N 40°47' W 074°01'0 0.0
2015-May-19 15:34N 40°47' W 074°01'0 0.0
2015-May-19 14:34N 40°47' W 074°01'0 0.0
2015-May-19 13:34N 40°47' W 074°01'0 0.0
2015-May-19 12:34N 40°47' W 074°01'0 0.0
2015-May-19 11:34N 40°47' W 074°01'0 0.0
2015-May-19 10:34N 40°47' W 074°01'0 0.0
2015-May-19 09:33N 40°47' W 074°01'0 0.0
2015-May-19 08:33N 40°47' W 074°01'0 0.0
2015-May-18 14:21N 40°47' W 074°01'1 1.5
2015-May-18 13:34N 40°46' W 074°01'0 0.4
2015-May-18 12:33N 40°45' W 074°01'0 0.0
2015-May-18 11:33N 40°46' W 074°01'1 1.1
2015-May-18 10:33N 40°47' W 074°01'0 0.0
2015-May-18 00:04N 40°46' W 074°00'4 7.1
2015-May-17 23:33N 40°43' W 073°58'2 1.9
2015-May-17 22:33N 40°45' W 073°58'1 0.7
2015-May-17 21:33N 40°46' W 073°57'1 0.7
2015-May-17 20:33N 40°46' W 073°57'0 0.3
2015-May-17 19:32N 40°46' W 073°57'0 0.5
2015-May-17 18:33N 40°46' W 073°57'0 0.1
2015-May-17 17:33N 40°46' W 073°56'0 0.1
2015-May-17 16:32N 40°47' W 073°56'0 0.1
2015-May-17 15:32N 40°46' W 073°57'6 5.6
2015-May-17 14:34N 40°42' W 074°02'4 3.8
2015-May-17 13:33N 40°46' W 074°00'0 0.2
2015-May-17 12:33N 40°46' W 074°00'0 0.4
2015-May-17 11:33N 40°47' W 074°01'1 0.2
2015-May-17 05:09N 40°46' W 074°00'0 0.8
2015-May-17 04:33N 40°46' W 074°00'0 0.1
2015-May-17 03:33N 40°46' W 074°00'0 0.1
2015-May-17 02:33N 40°46' W 074°00'0 0.2
2015-May-17 01:33N 40°46' W 074°00'2 2.0
2015-May-17 00:33N 40°44' W 074°01'5 5.3
2015-May-16 23:33N 40°48' W 073°56'0 0.0
2015-May-16 22:31N 40°48' W 073°56'0 0.1
2015-May-16 21:33N 40°48' W 073°56'0 0.0
2015-May-16 20:33N 40°48' W 073°56'0 0.0
2015-May-16 19:34N 40°48' W 073°56'1 1.0
2015-May-16 18:33N 40°47' W 073°56'0 0.4
2015-May-16 17:30N 40°46' W 073°57'3 1.4
2015-May-16 15:33N 40°44' W 073°58'3 0.2
2015-May-16 00:05N 40°47' W 074°01'1 2.0
2015-May-15 23:34N 40°46' W 074°01'0 0.4
2015-May-15 22:33N 40°46' W 074°01'0 0.0
2015-May-15 21:33N 40°46' W 074°01'0 0.0
2015-May-15 20:33N 40°45' W 074°01'1 0.9
2015-May-15 19:33N 40°46' W 074°01'0 0.0
2015-May-14 22:17N 40°46' W 074°01'4 5.6
2015-May-14 21:33N 40°42' W 074°00'4 0.8
2015-May-14 16:33N 40°46' W 074°01'1 0.0
2015-May-14 00:33N 40°46' W 074°00'1 0.7
2015-May-13 23:33N 40°45' W 074°01'0 0.2
2015-May-13 22:33N 40°45' W 074°01'0 0.1
2015-May-13 21:33N 40°46' W 074°01'0 0.3
2015-May-13 20:33N 40°45' W 074°01'  
Track history (hours):
 
Tides and Currents Weather Stations Pressure Air Temp Water Temp Dewpoint Dewpoint Depression Visibility Wind Speed Wind Dir Waves Ship Positions

Port Imperial New Jersey

Owner: PORT IMPERIAL FERRY CORP, WEEHAWKEN, NJ. More information available from US FCC via Universal Licensing System and Coast Guard Vessel Documentation Center.

Last reported at 2015-May-22 13:33 UTC. Time now 2015-May-23 01:10 UTC.
Position N 40°42' W 074°00'.

Length 31 m.

Type: Passenger vessel. MMSI: 366990550.

Date/timePositionNaut miles runAvg speedWind from/ knotsBaromVisibWave heightAir tempDewpointWater temp
2015-May-22 13:33N 40°42' W 074°00'2 1.7
2015-May-22 12:34N 40°44' W 074°01'1 0.6
2015-May-22 11:33N 40°43' W 074°01'1 0.1
2015-May-21 23:33N 40°44' W 074°01'2 2.4
2015-May-21 22:34N 40°42' W 074°01'2 2.1
2015-May-21 21:33N 40°44' W 074°02'2 2.2
2015-May-21 20:33N 40°42' W 074°01'1 0.9
2015-May-21 19:33N 40°43' W 074°01'4 3.8
2015-May-21 18:33N 40°47' W 074°01'0 0.0
2015-May-21 17:33N 40°47' W 074°01'0 0.0
2015-May-21 16:34N 40°47' W 074°01'0 0.0
2015-May-21 15:33N 40°47' W 074°01'0 0.0
2015-May-21 14:33N 40°47' W 074°01'0 0.0
2015-May-21 13:33N 40°47' W 074°01'0 0.0
2015-May-21 12:33N 40°47' W 074°01'0 0.0
2015-May-21 11:33N 40°47' W 074°01'0 0.0
2015-May-21 10:33N 40°47' W 074°01'0 0.0
2015-May-21 09:33N 40°47' W 074°01'0 0.0
2015-May-21 08:33N 40°47' W 074°01'0 0.0
2015-May-20 15:10N 40°47' W 074°01'0 0.0
2015-May-20 14:34N 40°47' W 074°01'0 0.0
2015-May-20 01:32N 40°47' W 074°01'0 0.0
2015-May-20 00:33N 40°47' W 074°01'0 0.0
2015-May-19 23:34N 40°47' W 074°01'0 0.0
2015-May-19 22:33N 40°47' W 074°01'0 0.0
2015-May-19 21:34N 40°47' W 074°01'0 0.0
2015-May-19 20:33N 40°47' W 074°01'0 0.0
2015-May-19 19:34N 40°47' W 074°01'0 0.0
2015-May-19 18:34N 40°47' W 074°01'0 0.0
2015-May-19 17:33N 40°47' W 074°01'0 0.0
2015-May-19 16:34N 40°47' W 074°01'0 0.0
2015-May-19 15:34N 40°47' W 074°01'0 0.0
2015-May-19 14:34N 40°47' W 074°01'0 0.0
2015-May-19 13:34N 40°47' W 074°01'0 0.0
2015-May-19 12:34N 40°47' W 074°01'0 0.0
2015-May-19 11:34N 40°47' W 074°01'0 0.0
2015-May-19 10:34N 40°47' W 074°01'0 0.0
2015-May-19 09:33N 40°47' W 074°01'0 0.0
2015-May-19 08:33N 40°47' W 074°01'0 0.0
2015-May-18 14:21N 40°47' W 074°01'1 1.5
2015-May-18 13:34N 40°46' W 074°01'0 0.4
2015-May-18 12:33N 40°45' W 074°01'0 0.0
2015-May-18 11:33N 40°46' W 074°01'1 1.1
2015-May-18 10:33N 40°47' W 074°01'0 0.0
2015-May-18 00:04N 40°46' W 074°00'4 7.1
2015-May-17 23:33N 40°43' W 073°58'2 1.9
2015-May-17 22:33N 40°45' W 073°58'1 0.7
2015-May-17 21:33N 40°46' W 073°57'1 0.7
2015-May-17 20:33N 40°46' W 073°57'0 0.3
2015-May-17 19:32N 40°46' W 073°57'0 0.5
2015-May-17 18:33N 40°46' W 073°57'0 0.1
2015-May-17 17:33N 40°46' W 073°56'0 0.1
2015-May-17 16:32N 40°47' W 073°56'0 0.1
2015-May-17 15:32N 40°46' W 073°57'6 5.6
2015-May-17 14:34N 40°42' W 074°02'4 3.8
2015-May-17 13:33N 40°46' W 074°00'0 0.2
2015-May-17 12:33N 40°46' W 074°00'0 0.4
2015-May-17 11:33N 40°47' W 074°01'1 0.2
2015-May-17 05:09N 40°46' W 074°00'0 0.8
2015-May-17 04:33N 40°46' W 074°00'0 0.1
2015-May-17 03:33N 40°46' W 074°00'0 0.1
2015-May-17 02:33N 40°46' W 074°00'0 0.2
2015-May-17 01:33N 40°46' W 074°00'2 2.0
2015-May-17 00:33N 40°44' W 074°01'5 5.3
2015-May-16 23:33N 40°48' W 073°56'0 0.0
2015-May-16 22:31N 40°48' W 073°56'0 0.1
2015-May-16 21:33N 40°48' W 073°56'0 0.0
2015-May-16 20:33N 40°48' W 073°56'0 0.0
2015-May-16 19:34N 40°48' W 073°56'1 1.0
2015-May-16 18:33N 40°47' W 073°56'0 0.4
2015-May-16 17:30N 40°46' W 073°57'3 1.4
2015-May-16 15:33N 40°44' W 073°58'3 0.2
2015-May-16 00:05N 40°47' W 074°01'1 2.0
2015-May-15 23:34N 40°46' W 074°01'0 0.4
2015-May-15 22:33N 40°46' W 074°01'0 0.0
2015-May-15 21:33N 40°46' W 074°01'0 0.0
2015-May-15 20:33N 40°45' W 074°01'1 0.9
2015-May-15 19:33N 40°46' W 074°01'0 0.0
2015-May-14 22:17N 40°46' W 074°01'4 5.6
2015-May-14 21:33N 40°42' W 074°00'4 0.8
2015-May-14 16:33N 40°46' W 074°01'1 0.0
2015-May-14 00:33N 40°46' W 074°00'1 0.7
2015-May-13 23:33N 40°45' W 074°01'0 0.2
2015-May-13 22:33N 40°45' W 074°01'0 0.1
2015-May-13 21:33N 40°46' W 074°01'0 0.3
2015-May-13 20:33N 40°45' W 074°01'  

Dump ship's entire track history